Hannes — H9GX — position and weather

sailwx.info

Track history (hours):
 
Tides and Currents Weather Stations Pressure Air Temp Water Temp Dewpoint Dewpoint Depression Visibility Wind Speed Wind Dir Waves Ship Positions

Hannes

Last reported at 2014-Jul-26 01:32 UTC. Time now 2014-Jul-31 05:27 UTC.
Position N 36°55' W 010°02'.

Length 89 m; draft 6.1 m.

Type: Cargo ship. MMSI: 352913000.

Date/timePositionNaut miles runAvg speedWind from/ knotsBaromVisibWave heightAir tempDewpointWater temp
2014-Jul-26 01:32N 36°55' W 010°02'11 8.9
2014-Jul-26 00:16N 37°04' W 009°55'38 9.5
2014-Jul-25 20:15N 37°37' W 009°31'7 9.5
2014-Jul-25 19:32N 37°43' W 009°27'9 9.2
2014-Jul-25 18:33N 37°51' W 009°22'9 9.2
2014-Jul-25 17:33N 37°60' W 009°17'9 9.2
2014-Jul-25 16:33N 38°08' W 009°11'9 9.2
2014-Jul-25 15:33N 38°16' W 009°06'9 9.4
2014-Jul-25 14:33N 38°24' W 009°00'8 0.9
2014-Jul-25 05:20N 38°31' W 008°54'0 0.0
2014-Jul-25 03:16N 38°31' W 008°54'0 0.0
2014-Jul-25 02:31N 38°31' W 008°54'2 2.1
2014-Jul-25 01:33N 38°29' W 008°56'0 0.0
2014-Jul-25 00:10N 38°29' W 008°56'0 0.0
2014-Jul-24 21:15N 38°29' W 008°56'0 0.0
2014-Jul-24 18:32N 38°29' W 008°56'0 0.0
2014-Jul-24 17:19N 38°29' W 008°56'0 0.0
2014-Jul-24 14:30N 38°29' W 008°56'0 0.0
2014-Jul-24 07:13N 38°29' W 008°56'3 3.5
2014-Jul-24 06:29N 38°31' W 008°53'0 0.0
2014-Jul-23 20:28N 38°31' W 008°53'0 0.0
2014-Jul-23 19:24N 38°31' W 008°53'0 0.0
2014-Jul-23 18:33N 38°31' W 008°53'0 0.0
2014-Jul-23 17:33N 38°31' W 008°53'0 0.0
2014-Jul-23 15:29N 38°31' W 008°53'0 0.0
2014-Jul-23 14:31N 38°31' W 008°53'0 0.0
2014-Jul-23 13:25N 38°31' W 008°53'0 0.0
2014-Jul-23 06:22N 38°31' W 008°53'0 0.0
2014-Jul-23 03:17N 38°31' W 008°53'0 0.0
2014-Jul-22 22:12N 38°31' W 008°53'0 0.0
2014-Jul-22 21:30N 38°31' W 008°53'0 0.0
2014-Jul-22 20:33N 38°31' W 008°53'0 0.0
2014-Jul-22 19:33N 38°31' W 008°53'0 0.0
2014-Jul-22 18:33N 38°31' W 008°53'0 0.0
2014-Jul-22 17:33N 38°31' W 008°53'0 0.0
2014-Jul-22 16:32N 38°31' W 008°53'4 3.7
2014-Jul-22 15:33N 38°28' W 008°57'9 9.3
2014-Jul-22 14:33N 38°21' W 009°03'10 9.4
2014-Jul-22 13:33N 38°12' W 009°09'9 9.3
2014-Jul-22 12:33N 38°04' W 009°15'9 8.9
2014-Jul-22 11:33N 37°57' W 009°21'9 8.8
2014-Jul-22 10:33N 37°49' W 009°26'9 8.7
2014-Jul-22 09:33N 37°41' W 009°30'9 8.7
2014-Jul-22 08:29N 37°33' W 009°37'9 8.2
2014-Jul-22 07:22N 37°25' W 009°42'7 8.1
2014-Jul-22 06:33N 37°19' W 009°46'18 8.2
2014-Jul-22 04:19N 37°04' W 009°58'6 7.9
2014-Jul-22 03:32N 36°58' W 010°02'8 8.2
2014-Jul-22 02:32N 36°52' W 010°08'9 8.6
2014-Jul-22 01:33N 36°44' W 010°14'9 9.1
2014-Jul-22 00:33N 36°37' W 010°20'19 9.1
2014-Jul-21 22:26N 36°20' W 010°32'27 9.4
2014-Jul-21 19:31N 35°56' W 010°48'10 9.4
2014-Jul-21 18:26N 35°47' W 010°54'  
Track history (hours):
 
Tides and Currents Weather Stations Pressure Air Temp Water Temp Dewpoint Dewpoint Depression Visibility Wind Speed Wind Dir Waves Ship Positions

Hannes

Last reported at 2014-Jul-26 01:32 UTC. Time now 2014-Jul-31 05:27 UTC.
Position N 36°55' W 010°02'.

Length 89 m; draft 6.1 m.

Type: Cargo ship. MMSI: 352913000.

Date/timePositionNaut miles runAvg speedWind from/ knotsBaromVisibWave heightAir tempDewpointWater temp
2014-Jul-26 01:32N 36°55' W 010°02'11 8.9
2014-Jul-26 00:16N 37°04' W 009°55'38 9.5
2014-Jul-25 20:15N 37°37' W 009°31'7 9.5
2014-Jul-25 19:32N 37°43' W 009°27'9 9.2
2014-Jul-25 18:33N 37°51' W 009°22'9 9.2
2014-Jul-25 17:33N 37°60' W 009°17'9 9.2
2014-Jul-25 16:33N 38°08' W 009°11'9 9.2
2014-Jul-25 15:33N 38°16' W 009°06'9 9.4
2014-Jul-25 14:33N 38°24' W 009°00'8 0.9
2014-Jul-25 05:20N 38°31' W 008°54'0 0.0
2014-Jul-25 03:16N 38°31' W 008°54'0 0.0
2014-Jul-25 02:31N 38°31' W 008°54'2 2.1
2014-Jul-25 01:33N 38°29' W 008°56'0 0.0
2014-Jul-25 00:10N 38°29' W 008°56'0 0.0
2014-Jul-24 21:15N 38°29' W 008°56'0 0.0
2014-Jul-24 18:32N 38°29' W 008°56'0 0.0
2014-Jul-24 17:19N 38°29' W 008°56'0 0.0
2014-Jul-24 14:30N 38°29' W 008°56'0 0.0
2014-Jul-24 07:13N 38°29' W 008°56'3 3.5
2014-Jul-24 06:29N 38°31' W 008°53'0 0.0
2014-Jul-23 20:28N 38°31' W 008°53'0 0.0
2014-Jul-23 19:24N 38°31' W 008°53'0 0.0
2014-Jul-23 18:33N 38°31' W 008°53'0 0.0
2014-Jul-23 17:33N 38°31' W 008°53'0 0.0
2014-Jul-23 15:29N 38°31' W 008°53'0 0.0
2014-Jul-23 14:31N 38°31' W 008°53'0 0.0
2014-Jul-23 13:25N 38°31' W 008°53'0 0.0
2014-Jul-23 06:22N 38°31' W 008°53'0 0.0
2014-Jul-23 03:17N 38°31' W 008°53'0 0.0
2014-Jul-22 22:12N 38°31' W 008°53'0 0.0
2014-Jul-22 21:30N 38°31' W 008°53'0 0.0
2014-Jul-22 20:33N 38°31' W 008°53'0 0.0
2014-Jul-22 19:33N 38°31' W 008°53'0 0.0
2014-Jul-22 18:33N 38°31' W 008°53'0 0.0
2014-Jul-22 17:33N 38°31' W 008°53'0 0.0
2014-Jul-22 16:32N 38°31' W 008°53'4 3.7
2014-Jul-22 15:33N 38°28' W 008°57'9 9.3
2014-Jul-22 14:33N 38°21' W 009°03'10 9.4
2014-Jul-22 13:33N 38°12' W 009°09'9 9.3
2014-Jul-22 12:33N 38°04' W 009°15'9 8.9
2014-Jul-22 11:33N 37°57' W 009°21'9 8.8
2014-Jul-22 10:33N 37°49' W 009°26'9 8.7
2014-Jul-22 09:33N 37°41' W 009°30'9 8.7
2014-Jul-22 08:29N 37°33' W 009°37'9 8.2
2014-Jul-22 07:22N 37°25' W 009°42'7 8.1
2014-Jul-22 06:33N 37°19' W 009°46'18 8.2
2014-Jul-22 04:19N 37°04' W 009°58'6 7.9
2014-Jul-22 03:32N 36°58' W 010°02'8 8.2
2014-Jul-22 02:32N 36°52' W 010°08'9 8.6
2014-Jul-22 01:33N 36°44' W 010°14'9 9.1
2014-Jul-22 00:33N 36°37' W 010°20'19 9.1
2014-Jul-21 22:26N 36°20' W 010°32'27 9.4
2014-Jul-21 19:31N 35°56' W 010°48'10 9.4
2014-Jul-21 18:26N 35°47' W 010°54'  

Dump ship's entire track history